Time;durP1;ratioP1;P1;durP2;ratioP2;P2;SDS_P1;SDS_P2;PMS_P1;PMS_P2;Temp;Humidity;BMP_temperature;BMP_pressure;BME280_temperature;BME280_humidity;BME280_pressure;Samples;Min_cycle;Max_cycle;Signal;HPM_P1;HPM_P2
2023/06/15 03:01:36;;;;;;;8.55;4.85;;;15.40;99.90;;;;;;5538092;23;20050;-78
2023/06/15 03:04:03;;;;;;;8.57;4.20;;;15.40;99.90;;;;;;4979371;28;20046;-77
2023/06/15 03:06:33;;;;;;;10.65;4.90;;;15.40;99.90;;;;;;4995374;28;20397;-78
2023/06/15 03:09:00;;;;;;;9.35;4.70;;;15.40;99.90;;;;;;4995471;28;20095;-80
2023/06/15 03:11:26;;;;;;;10.07;4.70;;;15.30;99.90;;;;;;4995355;28;20117;-77
2023/06/15 03:13:53;;;;;;;8.68;5.35;;;15.30;99.90;;;;;;4979353;28;20073;-80
2023/06/15 03:16:20;;;;;;;8.57;5.40;;;15.30;99.90;;;;;;4995331;28;20089;-78
2023/06/15 03:18:47;;;;;;;9.23;4.88;;;15.30;99.90;;;;;;4996891;28;20050;-77
2023/06/15 03:21:14;;;;;;;8.48;4.78;;;15.30;99.90;;;;;;4994848;28;20066;-79
2023/06/15 03:23:42;;;;;;;6.93;4.70;;;15.30;99.90;;;;;;4994473;28;20050;-79
2023/06/15 03:26:08;;;;;;;7.78;4.78;;;15.30;99.90;;;;;;4995145;28;20138;-78
2023/06/15 03:28:37;;;;;;;10.63;4.75;;;15.20;99.90;;;;;;4996408;28;20138;-80
2023/06/15 03:31:04;;;;;;;9.60;5.20;;;15.20;99.90;;;;;;4995062;28;20402;-78
2023/06/15 03:33:30;;;;;;;10.07;5.35;;;15.20;99.90;;;;;;4994894;28;20553;-80
2023/06/15 03:35:57;;;;;;;9.85;4.63;;;15.20;99.90;;;;;;4995017;28;20042;-80
2023/06/15 03:38:23;;;;;;;7.45;5.00;;;15.20;99.90;;;;;;4996378;28;20038;-80
2023/06/15 03:40:49;;;;;;;8.98;5.40;;;15.20;99.90;;;;;;4994894;28;20043;-77
2023/06/15 03:43:15;;;;;;;9.02;5.05;;;15.20;99.90;;;;;;4994656;28;20035;-79
2023/06/15 03:45:41;;;;;;;11.18;5.40;;;15.20;99.90;;;;;;4996248;28;20445;-77
2023/06/15 03:48:06;;;;;;;11.98;5.55;;;15.20;99.90;;;;;;4995030;28;20038;-77
2023/06/15 03:50:33;;;;;;;12.07;5.80;;;15.20;99.90;;;;;;4996108;28;20410;-79
2023/06/15 03:53:00;;;;;;;10.63;5.68;;;15.20;99.90;;;;;;4995617;28;20038;-78
2023/06/15 03:55:26;;;;;;;9.60;5.60;;;15.20;99.90;;;;;;4994399;28;20050;-78
2023/06/15 03:57:51;;;;;;;10.07;5.68;;;15.20;99.90;;;;;;4994496;28;20042;-79
2023/06/15 04:00:18;;;;;;;9.75;5.72;;;15.20;99.90;;;;;;4994351;28;20050;-78
2023/06/15 04:02:44;;;;;;;11.50;6.10;;;15.20;99.90;;;;;;4994161;28;20057;-79
2023/06/15 04:05:09;;;;;;;8.30;5.50;;;15.20;99.90;;;;;;4995785;28;20042;-80
2023/06/15 04:07:35;;;;;;;9.27;5.25;;;15.20;99.90;;;;;;4994515;28;20042;-79
2023/06/15 04:10:02;;;;;;;13.50;5.65;;;15.20;99.90;;;;;;4994284;28;20035;-80
2023/06/15 04:12:27;;;;;;;10.75;5.30;;;15.20;99.90;;;;;;4995571;28;20053;-78
2023/06/15 04:14:53;;;;;;;10.68;5.57;;;15.20;99.90;;;;;;4993864;28;20045;-78
2023/06/15 04:17:19;;;;;;;11.63;5.72;;;15.20;99.90;;;;;;4994005;28;20093;-77
2023/06/15 04:19:46;;;;;;;10.63;5.50;;;15.20;99.90;;;;;;4994150;28;20077;-78
2023/06/15 04:22:11;;;;;;;8.77;5.10;;;15.20;99.90;;;;;;4993995;28;20121;-77
2023/06/15 04:24:37;;;;;;;13.98;5.90;;;15.30;99.90;;;;;;4995004;28;20129;-78
2023/06/15 04:27:03;;;;;;;9.07;6.22;;;15.30;99.90;;;;;;4994682;28;20077;-78
2023/06/15 04:29:30;;;;;;;12.02;6.30;;;15.30;99.90;;;;;;4977686;28;20038;-78
2023/06/15 04:31:57;;;;;;;11.75;6.38;;;15.30;99.90;;;;;;4995173;28;20100;-77
2023/06/15 04:34:26;;;;;;;13.43;6.15;;;15.30;99.90;;;;;;4993674;28;20045;-79
2023/06/15 04:36:53;;;;;;;8.90;5.22;;;15.30;99.90;;;;;;4993561;28;20046;-78
2023/06/15 04:39:22;;;;;;;11.82;6.15;;;15.30;99.90;;;;;;4977348;28;20046;-78
2023/06/15 04:41:48;;;;;;;11.27;6.28;;;15.30;99.90;;;;;;4993496;28;20490;-82
2023/06/15 04:44:14;;;;;;;11.73;5.95;;;15.30;99.90;;;;;;4993468;28;20054;-77
2023/06/15 04:46:41;;;;;;;12.35;5.80;;;15.30;99.90;;;;;;4993626;28;20096;-80
2023/06/15 04:49:08;;;;;;;10.98;5.78;;;15.40;99.90;;;;;;4993451;28;20129;-79
2023/06/15 04:51:33;;;;;;;9.45;5.47;;;15.40;99.90;;;;;;4993206;28;20102;-79
2023/06/15 04:53:59;;;;;;;10.73;5.68;;;15.40;99.90;;;;;;4994922;28;20440;-79
2023/06/15 04:56:25;;;;;;;10.88;5.38;;;15.40;99.90;;;;;;4993243;28;20118;-78
2023/06/15 04:58:51;;;;;;;11.88;5.97;;;15.50;99.90;;;;;;4993937;28;20114;-79
2023/06/15 05:01:17;;;;;;;11.77;5.57;;;15.50;99.90;;;;;;4976684;28;20034;-78
2023/06/15 05:03:43;;;;;;;11.75;5.70;;;15.50;99.90;;;;;;4978095;28;20112;-78
2023/06/15 05:06:10;;;;;;;9.77;5.50;;;15.50;99.90;;;;;;4994710;28;20046;-78
2023/06/15 05:08:35;;;;;;;10.82;5.70;;;15.60;99.90;;;;;;4993041;28;20457;-77
2023/06/15 05:11:02;;;;;;;9.93;6.13;;;15.60;99.90;;;;;;4992961;28;20074;-78
2023/06/15 05:13:28;;;;;;;12.48;6.15;;;15.60;99.90;;;;;;4994254;28;20152;-78
2023/06/15 05:15:54;;;;;;;12.80;5.93;;;15.60;99.90;;;;;;4993041;28;20050;-78
2023/06/15 05:18:19;;;;;;;8.63;5.47;;;15.60;99.90;;;;;;4992972;28;20133;-79
2023/06/15 05:20:46;;;;;;;11.88;6.70;;;15.70;99.90;;;;;;4992886;28;20046;-80
2023/06/15 05:23:12;;;;;;;10.13;6.13;;;15.70;99.90;;;;;;4992772;28;20509;-78
2023/06/15 05:25:38;;;;;;;11.73;6.00;;;15.70;99.90;;;;;;4992842;28;20117;-80
2023/06/15 05:28:04;;;;;;;12.18;6.22;;;15.80;99.90;;;;;;4992762;28;20089;-78
2023/06/15 05:30:30;;;;;;;10.63;6.00;;;15.80;99.90;;;;;;4992980;28;20049;-80
2023/06/15 05:32:56;;;;;;;10.60;5.88;;;15.80;99.90;;;;;;4993076;28;20505;-79
2023/06/15 05:35:22;;;;;;;11.55;5.90;;;15.80;99.90;;;;;;4976732;28;20050;-78
2023/06/15 05:37:48;;;;;;;11.30;6.28;;;15.90;99.90;;;;;;4976581;28;20073;-79
2023/06/15 05:40:14;;;;;;;9.23;5.63;;;15.90;99.90;;;;;;4993043;28;20042;-78
2023/06/15 05:42:40;;;;;;;8.98;5.93;;;15.90;99.90;;;;;;4994182;28;20371;-80
2023/06/15 05:45:06;;;;;;;12.93;5.60;;;16.00;99.90;;;;;;4992802;28;20053;-79
2023/06/15 05:47:35;;;;;;;11.18;5.32;;;16.00;99.90;;;;;;4996203;28;20042;-80
2023/06/15 05:50:01;;;;;;;11.88;5.45;;;16.00;99.90;;;;;;4980550;28;20464;-77
2023/06/15 05:52:27;;;;;;;12.13;5.00;;;16.10;99.90;;;;;;4996484;28;20046;-78
2023/06/15 05:54:53;;;;;;;7.38;4.43;;;16.10;99.90;;;;;;4996537;28;20180;-79
2023/06/15 05:57:19;;;;;;;11.00;4.50;;;16.20;99.90;;;;;;4996660;28;20108;-79
2023/06/15 05:59:46;;;;;;;8.45;4.30;;;16.20;99.90;;;;;;4996972;28;20141;-80
2023/06/15 06:02:12;;;;;;;7.72;4.25;;;16.30;99.90;;;;;;4979854;28;20043;-80
2023/06/15 06:04:38;;;;;;;6.82;4.10;;;16.40;99.90;;;;;;4996790;28;20042;-77
2023/06/15 06:07:06;;;;;;;8.85;3.80;;;16.40;99.90;;;;;;4996188;28;20049;-78
2023/06/15 06:09:35;;;;;;;8.95;3.90;;;16.50;99.90;;;;;;4996143;28;20043;-80
2023/06/15 06:12:01;;;;;;;8.15;3.60;;;16.50;99.90;;;;;;4996238;28;20137;-77
2023/06/15 06:14:27;;;;;;;9.68;3.67;;;16.60;99.90;;;;;;4997513;28;20121;-77
2023/06/15 06:16:54;;;;;;;9.23;3.40;;;16.60;99.90;;;;;;4996466;28;20042;-79
2023/06/15 06:19:19;;;;;;;7.97;3.60;;;16.70;99.90;;;;;;4997511;28;20558;-78
2023/06/15 06:21:45;;;;;;;6.57;3.53;;;16.70;99.90;;;;;;4996072;28;20193;-77
2023/06/15 06:24:11;;;;;;;5.63;3.58;;;16.80;99.90;;;;;;4996577;28;20390;-80
2023/06/15 06:26:36;;;;;;;8.02;3.38;;;16.80;99.90;;;;;;4997524;28;20467;-80
2023/06/15 06:29:03;;;;;;;7.32;3.40;;;16.90;99.90;;;;;;4996138;28;20445;-78
2023/06/15 06:31:28;;;;;;;7.05;2.97;;;16.90;99.90;;;;;;4979586;28;20572;-78
2023/06/15 06:33:54;;;;;;;8.27;3.45;;;17.00;99.90;;;;;;4996000;28;20078;-79
2023/06/15 06:36:20;;;;;;;7.38;2.88;;;17.10;99.90;;;;;;4997893;28;20034;-77
2023/06/15 06:38:47;;;;;;;8.57;3.15;;;17.10;99.90;;;;;;4997484;28;20069;-79
2023/06/15 06:41:13;;;;;;;5.80;3.03;;;17.20;99.90;;;;;;4996171;28;20122;-79
2023/06/15 06:43:39;;;;;;;9.15;3.15;;;17.20;99.90;;;;;;4996123;28;20102;-78
2023/06/15 06:46:05;;;;;;;8.85;3.28;;;17.30;99.90;;;;;;4995936;28;20045;-79
2023/06/15 06:48:30;;;;;;;7.28;3.28;;;17.40;99.90;;;;;;4995917;28;20042;-76
2023/06/15 06:50:56;;;;;;;6.70;3.35;;;17.40;99.90;;;;;;4995773;28;20038;-79
2023/06/15 06:53:22;;;;;;;6.28;2.75;;;17.50;99.90;;;;;;4995592;28;20405;-78
2023/06/15 06:55:48;;;;;;;6.78;2.88;;;17.50;99.90;;;;;;4995946;28;20050;-77
2023/06/15 06:58:14;;;;;;;5.43;2.65;;;17.60;99.90;;;;;;4994816;28;20560;-80
2023/06/15 07:00:39;;;;;;;7.18;2.83;;;17.60;99.90;;;;;;4995497;28;20042;-78
2023/06/15 07:03:05;;;;;;;6.95;3.05;;;17.70;99.90;;;;;;4995740;28;20371;-78
2023/06/15 07:05:31;;;;;;;6.75;2.97;;;17.80;99.90;;;;;;4995282;28;20145;-78
2023/06/15 07:07:56;;;;;;;7.47;3.75;;;17.80;99.90;;;;;;4995714;28;20058;-79
2023/06/15 07:10:22;;;;;;;8.63;3.67;;;17.90;99.90;;;;;;4996140;28;20125;-79
2023/06/15 07:12:48;;;;;;;6.95;3.10;;;17.90;99.90;;;;;;4979265;28;20390;-80
2023/06/15 07:15:13;;;;;;;9.13;3.45;;;18.00;99.90;;;;;;4997055;28;20089;-80
2023/06/15 07:17:39;;;;;;;4.95;2.72;;;18.10;99.90;;;;;;4996400;28;20042;-78
2023/06/15 07:20:06;;;;;;;5.82;2.80;;;18.20;99.90;;;;;;4995187;28;20042;-78
2023/06/15 07:22:31;;;;;;;4.55;2.95;;;18.30;99.90;;;;;;4996282;28;20093;-78
2023/06/15 07:24:57;;;;;;;6.25;3.15;;;18.40;99.90;;;;;;4994991;28;20042;-77
2023/06/15 07:27:22;;;;;;;7.93;2.58;;;18.50;99.90;;;;;;4996678;28;20046;-79
2023/06/15 07:29:48;;;;;;;10.43;2.92;;;18.50;99.90;;;;;;4995986;28;20100;-77
2023/06/15 07:32:14;;;;;;;8.15;2.78;;;18.60;99.90;;;;;;4995047;28;20068;-78
2023/06/15 07:34:40;;;;;;;9.50;3.05;;;18.80;99.90;;;;;;4994716;28;20129;-78
2023/06/15 07:37:06;;;;;;;5.10;2.65;;;18.80;99.90;;;;;;4994715;28;20046;-78
2023/06/15 07:39:32;;;;;;;4.95;2.53;;;18.90;99.90;;;;;;4994529;28;20042;-76
2023/06/15 07:41:58;;;;;;;6.20;3.05;;;19.00;99.90;;;;;;4994411;28;20049;-78
2023/06/15 07:44:24;;;;;;;7.15;3.05;;;19.10;99.90;;;;;;4994573;28;20038;-80
2023/06/15 07:46:50;;;;;;;5.63;2.47;;;19.20;99.90;;;;;;4994866;28;20044;-78
2023/06/15 07:49:15;;;;;;;5.35;2.83;;;19.30;99.90;;;;;;4994470;28;20486;-78
2023/06/15 07:51:41;;;;;;;7.82;2.70;;;19.40;99.90;;;;;;4996200;28;20045;-79
2023/06/15 07:54:07;;;;;;;6.90;2.83;;;19.50;99.90;;;;;;4994300;28;20042;-77
2023/06/15 07:56:32;;;;;;;7.68;2.58;;;19.70;99.90;;;;;;4994202;28;20038;-77
2023/06/15 07:58:58;;;;;;;8.38;2.70;;;19.70;99.90;;;;;;4993944;28;20042;-79
2023/06/15 08:01:24;;;;;;;6.10;2.58;;;19.90;99.90;;;;;;4993734;28;20109;-78
2023/06/15 08:03:49;;;;;;;7.80;2.50;;;19.90;99.90;;;;;;4993993;28;20038;-79
2023/06/15 08:06:15;;;;;;;6.97;3.28;;;20.00;99.90;;;;;;4993999;28;20042;-77
2023/06/15 08:08:41;;;;;;;5.38;2.78;;;20.10;99.90;;;;;;4995245;28;20391;-77
2023/06/15 08:11:07;;;;;;;9.23;2.55;;;20.30;99.90;;;;;;4995382;28;20075;-77
2023/06/15 08:13:33;;;;;;;5.25;2.50;;;20.40;99.90;;;;;;4993853;28;20072;-78
2023/06/15 08:15:59;;;;;;;4.55;2.40;;;20.50;99.90;;;;;;4993849;28;20046;-76
2023/06/15 08:18:28;;;;;;;7.45;2.70;;;20.50;99.90;;;;;;4993810;28;20074;-78
2023/06/15 08:20:54;;;;;;;5.63;2.50;;;20.60;99.90;;;;;;4995371;28;20034;-78
2023/06/15 08:23:20;;;;;;;4.60;2.45;;;20.70;99.90;;;;;;4994950;28;20050;-76
2023/06/15 08:25:47;;;;;;;6.18;2.92;;;20.70;99.90;;;;;;4993911;28;20050;-78
2023/06/15 08:28:13;;;;;;;6.63;2.40;;;20.90;99.90;;;;;;4993745;28;20042;-76
2023/06/15 08:30:38;;;;;;;5.82;2.33;;;21.00;99.90;;;;;;4993864;28;20117;-79
2023/06/15 08:33:04;;;;;;;6.78;2.50;;;21.10;99.90;;;;;;4993610;28;20371;-80
2023/06/15 08:35:30;;;;;;;5.80;2.67;;;21.20;99.90;;;;;;4977075;28;20046;-77
2023/06/15 08:37:55;;;;;;;7.70;2.78;;;21.30;99.90;;;;;;4994494;28;20160;-79
2023/06/15 08:40:21;;;;;;;8.18;3.10;;;21.40;99.90;;;;;;4993257;28;20049;-79
2023/06/15 08:42:49;;;;;;;8.50;2.92;;;21.50;99.90;;;;;;4994557;28;20042;-80
2023/06/15 08:45:15;;;;;;;6.03;2.75;;;21.50;99.90;;;;;;4993299;28;20132;-76
2023/06/15 08:47:42;;;;;;;7.32;2.67;;;21.60;99.90;;;;;;4993453;28;20402;-79
2023/06/15 08:50:08;;;;;;;4.47;2.63;;;21.80;99.90;;;;;;4994713;28;20121;-78
2023/06/15 08:52:35;;;;;;;4.97;2.35;;;21.90;99.90;;;;;;4994963;28;20050;-77
2023/06/15 08:55:02;;;;;;;6.20;2.63;;;22.10;99.90;;;;;;4993027;28;20042;-79
2023/06/15 08:57:30;;;;;;;5.82;2.47;;;22.20;99.90;;;;;;4994229;28;20483;-80
2023/06/15 08:59:56;;;;;;;5.65;2.75;;;22.30;99.90;;;;;;4994640;28;20042;-76
2023/06/15 09:02:23;;;;;;;7.28;2.38;;;22.50;99.90;;;;;;4994038;28;20045;-78
2023/06/15 09:04:51;;;;;;;8.38;2.63;;;22.70;99.90;;;;;;4993114;28;20388;-77
2023/06/15 09:07:20;;;;;;;6.70;2.42;;;22.80;99.90;;;;;;4994519;28;20433;-76
2023/06/15 09:10:10;;;;;;;7.22;2.72;;;22.80;99.90;;;;;;4994321;28;20042;-79
2023/06/15 09:12:56;;;;;;;9.48;2.58;;;23.00;99.20;;;;;;4993115;28;20552;-79
2023/06/15 09:15:27;;;;;;;4.50;2.65;;;23.10;98.60;;;;;;4992818;28;20042;-77
2023/06/15 09:17:55;;;;;;;4.90;2.50;;;23.20;97.80;;;;;;4993039;28;20046;-76
2023/06/15 09:20:24;;;;;;;4.82;2.50;;;23.30;97.90;;;;;;4992219;28;20061;-79
2023/06/15 09:22:50;;;;;;;7.20;2.60;;;23.50;97.20;;;;;;4993783;28;20113;-79
2023/06/15 09:25:19;;;;;;;4.88;2.90;;;23.50;96.50;;;;;;4992576;28;20064;-79
2023/06/15 09:28:06;;;;;;;7.88;2.72;;;23.60;95.90;;;;;;4993927;28;20042;-77
2023/06/15 09:30:36;;;;;;;4.93;2.38;;;23.70;95.10;;;;;;4993879;28;20491;-78
2023/06/15 09:33:12;;;;;;;7.30;2.42;;;23.70;94.90;;;;;;4992569;28;20104;-77
2023/06/15 09:35:54;;;;;;;8.13;2.60;;;23.80;94.00;;;;;;4976451;28;20046;-77
2023/06/15 09:38:19;;;;;;;7.85;2.35;;;23.90;93.50;;;;;;4992894;28;20176;-77
2023/06/15 09:40:45;;;;;;;6.07;2.60;;;24.10;94.10;;;;;;4993971;28;20545;-77
2023/06/15 09:43:12;;;;;;;5.60;2.45;;;24.20;93.80;;;;;;4992344;28;20038;-76
2023/06/15 09:45:51;;;;;;;4.95;2.40;;;24.30;92.30;;;;;;4992529;28;20513;-79
2023/06/15 09:48:17;;;;;;;6.53;2.67;;;24.40;92.80;;;;;;4992329;28;20038;-76
2023/06/15 09:50:43;;;;;;;5.95;2.92;;;24.50;92.50;;;;;;4993698;28;20084;-77
2023/06/15 09:53:12;;;;;;;7.63;2.83;;;24.60;92.20;;;;;;4992355;28;20375;-76
2023/06/15 09:55:43;;;;;;;7.88;2.80;;;24.70;91.70;;;;;;4993857;28;20402;-79
2023/06/15 09:58:10;;;;;;;4.90;2.65;;;24.80;90.60;;;;;;4992452;28;20520;-78
2023/06/15 10:00:36;;;;;;;5.05;2.60;;;25.00;90.30;;;;;;4993619;28;20374;-79
2023/06/15 10:03:03;;;;;;;5.72;2.47;;;25.10;89.40;;;;;;4976195;28;20038;-78
2023/06/15 10:05:34;;;;;;;5.95;2.50;;;25.20;88.30;;;;;;4993639;28;20070;-77
2023/06/15 10:08:04;;;;;;;6.45;2.60;;;25.30;87.00;;;;;;4995297;28;20038;-78
2023/06/15 10:10:31;;;;;;;6.63;2.40;;;25.40;84.40;;;;;;4996637;28;20052;-78
2023/06/15 10:13:00;;;;;;;4.72;2.80;;;25.50;83.90;;;;;;4997477;28;20069;-77
2023/06/15 10:15:28;;;;;;;6.97;2.70;;;25.60;84.30;;;;;;4999594;28;20042;-79
2023/06/15 10:17:56;;;;;;;5.68;2.47;;;25.70;83.00;;;;;;4993125;28;20509;-75
2023/06/15 10:20:26;;;;;;;8.98;2.65;;;25.80;82.80;;;;;;4992552;28;20046;-78
2023/06/15 10:23:03;;;;;;;6.55;2.83;;;25.90;82.10;;;;;;4994261;28;20043;-77
2023/06/15 10:25:30;;;;;;;6.45;2.58;;;25.90;81.30;;;;;;4992382;28;20112;-77
2023/06/15 10:27:58;;;;;;;4.40;2.55;;;26.00;80.40;;;;;;4992450;28;20108;-77
2023/06/15 10:30:38;;;;;;;8.15;3.05;;;26.10;80.00;;;;;;4993008;28;20069;-79
2023/06/15 10:33:20;;;;;;;8.65;3.03;;;26.20;79.80;;;;;;4995007;28;20508;-77
2023/06/15 10:36:31;;;;;;;5.22;2.30;;;26.30;80.00;;;;;;4995742;28;20084;-79
2023/06/15 10:39:14;;;;;;;6.32;2.38;;;26.50;79.40;;;;;;4995530;28;20494;-77
2023/06/15 10:41:39;;;;;;;4.13;2.40;;;26.50;77.50;;;;;;4995673;28;20445;-77
2023/06/15 10:44:05;;;;;;;7.70;2.33;;;26.60;76.80;;;;;;4995503;28;20038;-78
2023/06/15 10:46:34;;;;;;;7.78;2.63;;;26.60;77.30;;;;;;4997134;28;20043;-78
2023/06/15 10:49:05;;;;;;;5.82;2.78;;;26.70;76.60;;;;;;4995514;28;20042;-77
2023/06/15 10:51:37;;;;;;;6.03;2.78;;;26.70;75.80;;;;;;4995273;28;20088;-77
2023/06/15 10:54:04;;;;;;;6.47;2.53;;;26.80;74.20;;;;;;4996731;28;20441;-78
2023/06/15 10:56:30;;;;;;;5.70;2.58;;;26.90;73.30;;;;;;4995306;28;20121;-77
2023/06/15 10:58:59;;;;;;;4.30;2.40;;;26.90;72.70;;;;;;4995397;28;20034;-77
2023/06/15 11:01:32;;;;;;;4.50;2.40;;;26.90;72.80;;;;;;4995039;28;20086;-77
2023/06/15 11:03:59;;;;;;;7.18;2.70;;;27.00;74.90;;;;;;4995054;28;20099;-79
2023/06/15 11:06:36;;;;;;;6.03;2.75;;;27.10;72.90;;;;;;4995192;28;20092;-78
2023/06/15 11:09:06;;;;;;;5.63;2.70;;;27.20;73.00;;;;;;4995011;28;20042;-78
2023/06/15 11:11:37;;;;;;;6.00;2.70;;;27.10;70.30;;;;;;4994935;28;20047;-78
2023/06/15 11:14:04;;;;;;;5.40;2.63;;;27.10;71.70;;;;;;4996200;28;20343;-80
2023/06/15 11:16:35;;;;;;;4.38;2.40;;;27.10;71.30;;;;;;4996751;28;20042;-75
2023/06/15 11:19:10;;;;;;;4.70;2.50;;;27.20;71.60;;;;;;4994811;28;20049;-78
2023/06/15 11:21:47;;;;;;;;;;;27.20;70.40;;;;;;4995369;28;20478;-78
2023/06/15 11:24:13;;;;;;;4.72;2.80;;;27.20;71.30;;;;;;4996227;28;20056;-77
2023/06/15 11:26:48;;;;;;;5.57;2.45;;;27.00;69.10;;;;;;4994532;28;20491;-76
2023/06/15 11:29:21;;;;;;;;;;;27.00;68.30;;;;;;4995028;28;20061;-76
2023/06/15 11:31:46;;;;;;;3.95;2.25;;;27.00;69.50;;;;;;4994415;28;19924;-78
2023/06/15 11:34:12;;;;;;;4.70;2.45;;;27.10;69.20;;;;;;4994715;28;20050;-78
2023/06/15 11:36:38;;;;;;;7.45;2.55;;;27.20;67.90;;;;;;4994918;28;20042;-79
2023/06/15 11:39:07;;;;;;;6.10;2.20;;;27.20;67.40;;;;;;4995868;28;20398;-79
2023/06/15 11:41:32;;;;;;;10.48;2.80;;;27.20;66.50;;;;;;4995695;28;20074;-77
2023/06/15 11:43:58;;;;;;;4.28;2.30;;;27.40;68.20;;;;;;4995186;28;20073;-74
2023/06/15 11:46:25;;;;;;;5.70;2.67;;;27.50;66.80;;;;;;4995778;28;20089;-78
2023/06/15 11:48:58;;;;;;;4.00;2.47;;;27.50;66.40;;;;;;4994174;28;20038;-79
2023/06/15 11:51:25;;;;;;;4.40;2.35;;;27.50;64.00;;;;;;4993999;28;20044;-78
2023/06/15 11:53:53;;;;;;;3.85;2.20;;;27.50;65.00;;;;;;4995438;28;20105;-77
2023/06/15 11:56:18;;;;;;;4.13;2.40;;;27.50;65.80;;;;;;4993939;28;20054;-79
2023/06/15 11:58:46;;;;;;;6.28;2.30;;;27.60;66.40;;;;;;4995354;28;20034;-77
2023/06/15 12:01:14;;;;;;;4.93;2.50;;;27.70;66.30;;;;;;4995248;28;20085;-76
2023/06/15 12:03:51;;;;;;;5.05;2.45;;;27.70;65.60;;;;;;4993886;28;20069;-79
2023/06/15 12:06:20;;;;;;;5.43;2.10;;;27.80;65.40;;;;;;4993794;28;20046;-78
2023/06/15 12:08:49;;;;;;;5.80;2.30;;;27.80;64.40;;;;;;4993828;28;20045;-76
2023/06/15 12:11:14;;;;;;;5.57;2.85;;;27.90;64.50;;;;;;4993914;28;20078;-76
2023/06/15 12:13:40;;;;;;;4.63;2.45;;;27.90;63.20;;;;;;4995227;28;20487;-77
2023/06/15 12:16:07;;;;;;;4.60;2.15;;;27.80;63.00;;;;;;4993623;28;20373;-76
2023/06/15 12:18:33;;;;;;;5.72;2.20;;;27.80;62.90;;;;;;4977410;28;20454;-76
2023/06/15 12:21:02;;;;;;;6.25;2.50;;;27.80;62.30;;;;;;4994984;28;20144;-76
2023/06/15 12:23:30;;;;;;;6.50;2.60;;;27.80;59.80;;;;;;4994654;28;20129;-77
2023/06/15 12:25:56;;;;;;;5.22;2.42;;;27.70;60.10;;;;;;4995032;28;20034;-77
2023/06/15 12:28:24;;;;;;;6.95;2.60;;;27.80;60.70;;;;;;4994783;28;20042;-78
2023/06/15 12:30:51;;;;;;;8.90;2.42;;;27.90;60.20;;;;;;4976895;28;20063;-77
2023/06/15 12:33:30;;;;;;;4.70;2.20;;;27.90;59.70;;;;;;4994606;28;20080;-75
2023/06/15 12:36:00;;;;;;;5.80;2.60;;;28.00;60.20;;;;;;4993383;28;20038;-76
2023/06/15 12:38:27;;;;;;;7.78;2.60;;;28.10;60.40;;;;;;4993408;28;20042;-77
2023/06/15 12:40:53;;;;;;;6.50;2.25;;;28.20;60.20;;;;;;4993048;28;20125;-78
2023/06/15 12:43:20;;;;;;;7.60;2.45;;;28.30;60.40;;;;;;4994736;28;20042;-79
2023/06/15 12:45:47;;;;;;;9.20;2.60;;;28.40;61.00;;;;;;4994608;28;20038;-79
2023/06/15 12:48:13;;;;;;;4.47;2.60;;;28.50;59.50;;;;;;4993430;28;20066;-76
2023/06/15 12:50:39;;;;;;;6.20;2.40;;;28.50;59.20;;;;;;4994247;28;20449;-77
2023/06/15 12:53:05;;;;;;;6.95;2.42;;;28.50;58.90;;;;;;4993301;28;20129;-75
2023/06/15 12:55:30;;;;;;;5.20;2.67;;;28.50;58.90;;;;;;4993767;28;20041;-79
2023/06/15 12:57:56;;;;;;;6.10;2.60;;;28.60;58.80;;;;;;4994136;28;20034;-77
2023/06/15 13:00:27;;;;;;;4.40;2.50;;;28.60;58.60;;;;;;4993846;28;20141;-77
2023/06/15 13:02:53;;;;;;;4.25;2.22;;;28.70;61.30;;;;;;4994051;28;20046;-78
2023/06/15 13:05:20;;;;;;;6.60;2.30;;;28.70;59.50;;;;;;4993236;28;20045;-78
2023/06/15 13:07:46;;;;;;;3.90;2.13;;;28.70;58.40;;;;;;4994170;28;20078;-77
2023/06/15 13:10:12;;;;;;;5.53;2.20;;;28.80;56.90;;;;;;4994365;28;20073;-78
2023/06/15 13:12:43;;;;;;;3.80;2.20;;;28.70;57.10;;;;;;4993882;28;20046;-77
2023/06/15 13:15:09;;;;;;;7.38;2.20;;;28.80;59.30;;;;;;4994045;28;20042;-78
2023/06/15 13:17:36;;;;;;;5.22;2.28;;;28.90;57.80;;;;;;4992910;28;20046;-77
2023/06/15 13:20:07;;;;;;;6.25;1.98;;;28.90;56.60;;;;;;4992686;28;20046;-76
2023/06/15 13:22:34;;;;;;;4.20;2.13;;;29.00;58.20;;;;;;4992659;28;20402;-78
2023/06/15 13:25:00;;;;;;;6.65;2.20;;;29.10;57.60;;;;;;4993830;28;20482;-79
2023/06/15 13:27:26;;;;;;;3.42;2.53;;;29.10;56.50;;;;;;4992626;28;20102;-79
2023/06/15 13:29:52;;;;;;;6.20;2.30;;;29.00;54.80;;;;;;4993099;28;20050;-78
2023/06/15 13:32:18;;;;;;;5.88;2.40;;;28.70;54.40;;;;;;4994065;28;20493;-78
2023/06/15 13:34:43;;;;;;;3.65;2.40;;;28.50;54.80;;;;;;4993952;28;20394;-79
2023/06/15 13:37:11;;;;;;;4.78;2.33;;;28.60;56.30;;;;;;4992783;28;20042;-78
2023/06/15 13:39:37;;;;;;;5.05;2.30;;;28.50;57.00;;;;;;4992554;28;20046;-78
2023/06/15 13:42:07;;;;;;;3.47;2.05;;;28.30;56.80;;;;;;4993628;28;20065;-77
2023/06/15 13:44:33;;;;;;;4.53;2.10;;;28.00;56.60;;;;;;4992668;28;20080;-78
2023/06/15 13:46:58;;;;;;;3.42;2.15;;;27.80;55.70;;;;;;4992838;28;20117;-80
2023/06/15 13:49:24;;;;;;;3.75;2.17;;;27.90;55.10;;;;;;4992355;28;20552;-76
2023/06/15 13:51:50;;;;;;;4.15;2.45;;;27.90;54.10;;;;;;4992559;28;20051;-79
2023/06/15 13:54:16;;;;;;;4.82;2.20;;;28.00;55.10;;;;;;4992641;28;20501;-79
2023/06/15 13:56:44;;;;;;;5.38;2.35;;;28.10;55.10;;;;;;4992841;28;20046;-77
2023/06/15 13:59:10;;;;;;;4.90;1.98;;;28.20;55.40;;;;;;4993773;28;20114;-80
2023/06/15 14:01:35;;;;;;;4.55;2.22;;;28.30;55.60;;;;;;4993476;28;20050;-78
2023/06/15 14:04:01;;;;;;;4.65;2.10;;;28.50;55.90;;;;;;4993426;28;20042;-78
2023/06/15 14:06:27;;;;;;;5.45;2.42;;;28.60;55.40;;;;;;4993553;28;20117;-79
2023/06/15 14:08:53;;;;;;;5.72;2.10;;;28.70;55.30;;;;;;4996346;28;20537;-77
2023/06/15 14:11:19;;;;;;;5.10;2.60;;;28.70;55.60;;;;;;4997188;28;20038;-78
2023/06/15 14:13:50;;;;;;;6.15;2.70;;;28.80;55.40;;;;;;4997505;28;20042;-78
2023/06/15 14:16:16;;;;;;;7.05;2.70;;;28.80;55.80;;;;;;4997653;28;20110;-79
2023/06/15 14:18:42;;;;;;;8.63;2.35;;;28.90;54.50;;;;;;4995920;28;20050;-77
2023/06/15 14:21:07;;;;;;;10.82;2.97;;;29.00;54.80;;;;;;4995791;28;20069;-77
2023/06/15 14:23:34;;;;;;;4.57;2.28;;;29.10;54.00;;;;;;4997170;28;20097;-78
2023/06/15 14:26:00;;;;;;;4.53;2.55;;;29.10;53.10;;;;;;4995805;28;20046;-77
2023/06/15 14:28:25;;;;;;;8.23;2.60;;;29.10;55.00;;;;;;4996942;28;20045;-78
2023/06/15 14:30:51;;;;;;;4.30;2.30;;;29.10;53.90;;;;;;4997076;28;20154;-78
2023/06/15 14:33:17;;;;;;;9.48;3.55;;;29.10;53.20;;;;;;4996359;28;20386;-79
2023/06/15 14:35:42;;;;;;;3.90;2.13;;;28.90;52.10;;;;;;4996013;28;20050;-77
2023/06/15 14:38:08;;;;;;;5.57;2.50;;;28.70;53.20;;;;;;4995595;28;20500;-79
2023/06/15 14:40:33;;;;;;;5.40;2.28;;;28.80;53.70;;;;;;4995483;28;20046;-77
2023/06/15 14:42:59;;;;;;;6.07;2.50;;;29.00;54.70;;;;;;4996955;28;20043;-78
2023/06/15 14:45:25;;;;;;;6.20;2.45;;;29.00;54.50;;;;;;4996940;28;20036;-76
2023/06/15 14:47:52;;;;;;;6.07;2.70;;;28.80;54.80;;;;;;4996804;28;20041;-80
2023/06/15 14:50:18;;;;;;;3.50;2.10;;;28.50;54.70;;;;;;4996400;28;20042;-80
2023/06/15 14:52:44;;;;;;;6.20;2.60;;;28.20;54.30;;;;;;4995213;28;20379;-78
2023/06/15 14:55:10;;;;;;;4.65;2.38;;;28.00;54.30;;;;;;4996492;28;20081;-81
2023/06/15 14:57:36;;;;;;;4.38;2.30;;;27.80;54.40;;;;;;4995313;28;20096;-79
2023/06/15 15:00:04;;;;;;;5.85;2.40;;;27.50;54.10;;;;;;4995107;28;20042;-76
2023/06/15 15:02:30;;;;;;;5.53;2.83;;;27.40;55.20;;;;;;4978837;28;20050;-79
2023/06/15 15:04:56;;;;;;;7.45;2.70;;;27.50;57.80;;;;;;4996193;28;20053;-79
2023/06/15 15:07:22;;;;;;;4.75;2.70;;;27.40;59.70;;;;;;4995844;28;20042;-77
2023/06/15 15:09:47;;;;;;;3.85;2.58;;;27.50;61.80;;;;;;4995128;28;20044;-78
2023/06/15 15:12:13;;;;;;;5.45;2.65;;;27.70;61.70;;;;;;4996136;28;20041;-77
2023/06/15 15:14:39;;;;;;;6.60;3.00;;;27.90;61.30;;;;;;4994972;28;20049;-78
2023/06/15 15:17:04;;;;;;;9.32;2.72;;;28.10;62.40;;;;;;4994842;28;20117;-76
2023/06/15 15:19:30;;;;;;;9.52;2.70;;;28.10;62.10;;;;;;4993989;28;20088;-80
2023/06/15 15:21:56;;;;;;;5.75;2.45;;;28.30;60.80;;;;;;4996240;28;20039;-79
2023/06/15 15:24:22;;;;;;;6.50;2.67;;;28.40;60.30;;;;;;4996516;28;20038;-77
2023/06/15 15:26:48;;;;;;;6.60;2.90;;;28.10;60.10;;;;;;4995115;28;20094;-78
2023/06/15 15:29:13;;;;;;;7.63;2.72;;;27.80;60.70;;;;;;4978672;28;20096;-77
2023/06/15 15:31:39;;;;;;;6.35;2.70;;;27.70;61.00;;;;;;4994905;28;20074;-76
2023/06/15 15:34:05;;;;;;;4.82;2.78;;;27.60;60.80;;;;;;4995069;28;20069;-78
2023/06/15 15:36:30;;;;;;;8.43;2.47;;;27.60;60.60;;;;;;4994666;28;20112;-77
2023/06/15 15:38:59;;;;;;;5.35;2.80;;;27.50;60.60;;;;;;4995965;28;20044;-78
2023/06/15 15:41:25;;;;;;;6.65;2.45;;;27.60;60.70;;;;;;4994427;28;20078;-78
2023/06/15 15:43:52;;;;;;;5.65;2.63;;;27.60;62.00;;;;;;4978246;28;20070;-80
2023/06/15 15:46:17;;;;;;;7.82;2.80;;;27.70;61.70;;;;;;4994444;28;20042;-78